Time;durP1;ratioP1;P1;durP2;ratioP2;P2;SDS_P1;SDS_P2;PMS_P1;PMS_P2;Temp;Humidity;BMP_temperature;BMP_pressure;BME280_temperature;BME280_humidity;BME280_pressure;Samples;Min_cycle;Max_cycle;Signal;HPM_P1;HPM_P2
2022/12/24 00:00:31;;;;;;;3.83;1.20;;;9.90;99.90;;;;;;6310203;22;20202;-44
2022/12/24 00:02:57;;;;;;;3.20;1.73;;;10.00;99.90;;;;;;6337918;22;20152;-45
2022/12/24 00:05:23;;;;;;;4.27;1.80;;;10.00;99.90;;;;;;6311026;22;20156;-45
2022/12/24 00:07:48;;;;;;;7.43;3.10;;;10.00;99.90;;;;;;6310707;22;20159;-45
2022/12/24 00:10:14;;;;;;;4.73;2.10;;;10.00;99.90;;;;;;6310279;22;20160;-44
2022/12/24 00:12:40;;;;;;;5.63;2.17;;;10.00;99.90;;;;;;6310194;22;20251;-44
2022/12/24 00:15:07;;;;;;;6.77;2.40;;;10.00;99.90;;;;;;6310787;22;20168;-44
2022/12/24 00:17:33;;;;;;;5.37;2.30;;;9.90;99.90;;;;;;6310854;22;20166;-44
2022/12/24 00:19:59;;;;;;;7.70;3.17;;;9.90;99.90;;;;;;6310550;22;20147;-45
2022/12/24 00:22:24;;;;;;;8.20;3.40;;;9.90;99.90;;;;;;6310288;22;20162;-44
2022/12/24 00:24:50;;;;;;;6.60;3.10;;;9.80;99.90;;;;;;6309655;22;20187;-44
2022/12/24 00:27:17;;;;;;;5.33;2.50;;;9.80;99.90;;;;;;6310278;22;20527;-44
2022/12/24 00:29:43;;;;;;;13.03;4.70;;;9.80;99.90;;;;;;6310214;22;20168;-44
2022/12/24 00:32:09;;;;;;;8.80;4.10;;;9.80;99.90;;;;;;6310473;22;20191;-45
2022/12/24 00:34:39;;;;;;;7.33;2.77;;;9.80;99.90;;;;;;6310098;22;20159;-44
2022/12/24 00:37:07;;;;;;;7.90;3.53;;;9.80;99.90;;;;;;6310610;22;20155;-41
2022/12/24 00:39:32;;;;;;;9.23;4.57;;;9.70;99.90;;;;;;6337461;22;20165;-45
2022/12/24 00:41:58;;;;;;;8.80;4.30;;;9.70;99.90;;;;;;6310206;22;20183;-45
2022/12/24 00:44:24;;;;;;;8.47;4.63;;;9.70;99.90;;;;;;6337378;22;20151;-45
2022/12/24 00:46:50;;;;;;;4.83;2.77;;;9.70;99.90;;;;;;6337807;22;20180;-44
2022/12/24 00:49:16;;;;;;;5.50;2.53;;;9.60;99.90;;;;;;6309501;22;20182;-45
2022/12/24 00:51:42;;;;;;;13.80;4.20;;;9.60;99.90;;;;;;6337850;22;20240;-44
2022/12/24 00:54:08;;;;;;;11.87;3.60;;;9.60;99.90;;;;;;6337772;22;20159;-44
2022/12/24 00:56:34;;;;;;;9.53;2.47;;;9.60;99.90;;;;;;6338038;22;20237;-45
2022/12/24 00:59:00;;;;;;;4.63;2.00;;;9.60;99.90;;;;;;6337291;22;20224;-44
2022/12/24 01:01:26;;;;;;;6.43;2.10;;;9.60;99.90;;;;;;6310423;22;20241;-44
2022/12/24 01:05:09;;;;;;;4.17;2.37;;;9.60;99.90;;;;;;6309998;22;20257;-44
2022/12/24 01:06:38;;;;;;;5.33;2.37;;;9.60;99.90;;;;;;6310017;22;20155;-44
2022/12/24 01:09:04;;;;;;;6.43;2.40;;;9.50;99.90;;;;;;6337333;22;20143;-44
2022/12/24 01:11:30;;;;;;;5.43;1.70;;;9.50;99.90;;;;;;6284296;22;20222;-44
2022/12/24 01:13:56;;;;;;;3.60;2.00;;;9.40;99.90;;;;;;6309927;22;20155;-44
2022/12/24 01:16:22;;;;;;;3.67;1.73;;;9.40;99.90;;;;;;6309715;22;20204;-45
2022/12/24 01:18:48;;;;;;;4.47;1.70;;;9.40;99.90;;;;;;6337157;22;20151;-44
2022/12/24 01:21:14;;;;;;;7.83;1.93;;;9.40;99.90;;;;;;6337409;22;20227;-44
2022/12/24 01:23:40;;;;;;;6.83;2.10;;;9.50;99.90;;;;;;6309793;22;20676;-45
2022/12/24 01:26:06;;;;;;;6.53;1.80;;;9.50;99.90;;;;;;6310447;22;20181;-45
2022/12/24 01:28:32;;;;;;;4.80;1.67;;;9.50;99.90;;;;;;6310242;22;20149;-45
2022/12/24 01:30:58;;;;;;;5.47;1.60;;;9.50;99.90;;;;;;6337301;22;20502;-44
2022/12/24 01:33:27;;;;;;;4.10;1.57;;;9.50;99.90;;;;;;6337509;22;20180;-45
2022/12/24 01:35:53;;;;;;;5.13;1.60;;;9.50;99.90;;;;;;6337828;22;20154;-44
2022/12/24 01:38:19;;;;;;;3.47;1.77;;;9.50;99.90;;;;;;6337233;22;20210;-44
2022/12/24 01:43:31;;;;;;;3.70;1.70;;;9.60;99.90;;;;;;6337795;22;20140;-45
2022/12/24 01:46:03;;;;;;;8.67;1.67;;;9.60;99.90;;;;;;6337514;22;20178;-45
2022/12/24 01:49:10;;;;;;;6.03;1.60;;;9.60;99.90;;;;;;6309819;22;20159;-42
2022/12/24 01:51:47;;;;;;;3.07;1.50;;;9.60;99.90;;;;;;6241580;23;20196;-45
2022/12/24 01:54:24;;;;;;;5.73;1.63;;;9.60;99.90;;;;;;6241956;23;20216;-44
2022/12/24 01:56:57;;;;;;;7.93;1.70;;;9.60;99.90;;;;;;6250370;22;20186;-44
2022/12/24 01:59:23;;;;;;;4.30;1.77;;;9.60;99.90;;;;;;6309699;22;20132;-44
2022/12/24 02:01:50;;;;;;;5.23;1.70;;;9.50;99.90;;;;;;6337207;22;20209;-44
2022/12/24 02:04:22;;;;;;;5.33;1.60;;;9.50;99.90;;;;;;6309823;22;20159;-44
2022/12/24 02:06:48;;;;;;;5.20;1.73;;;9.40;99.90;;;;;;6310083;22;20148;-45
2022/12/24 02:09:14;;;;;;;5.37;1.43;;;9.40;99.90;;;;;;6309793;22;20163;-44
2022/12/24 02:11:43;;;;;;;6.67;1.50;;;9.30;99.90;;;;;;6309936;22;20237;-44
2022/12/24 02:14:10;;;;;;;5.83;1.37;;;9.20;99.90;;;;;;6337363;22;20155;-43
2022/12/24 02:16:57;;;;;;;6.43;1.60;;;9.20;99.90;;;;;;6309670;22;20226;-44
2022/12/24 02:20:01;;;;;;;5.70;1.70;;;9.00;99.90;;;;;;6308972;22;20144;-44
2022/12/24 02:22:33;;;;;;;7.43;1.50;;;8.90;99.90;;;;;;6310001;22;20166;-44
2022/12/24 02:25:23;;;;;;;3.97;1.30;;;8.90;99.90;;;;;;6284200;22;20205;-44
2022/12/24 02:28:10;;;;;;;2.70;1.23;;;8.80;99.90;;;;;;6283809;22;20156;-44
2022/12/24 02:30:57;;;;;;;6.23;1.77;;;8.80;99.90;;;;;;6309401;22;20182;-44
2022/12/24 02:33:29;;;;;;;4.97;1.47;;;8.80;99.90;;;;;;6309759;22;20181;-44
2022/12/24 02:36:04;;;;;;;4.50;1.70;;;8.70;99.90;;;;;;6309649;22;20205;-43
2022/12/24 02:38:33;;;;;;;4.27;1.50;;;8.70;99.90;;;;;;6309882;22;20151;-45
2022/12/24 02:41:04;;;;;;;2.53;1.17;;;8.70;99.90;;;;;;6309525;22;20178;-45
2022/12/24 02:43:35;;;;;;;4.17;1.40;;;8.80;99.90;;;;;;6309696;22;20230;-44
2022/12/24 02:46:10;;;;;;;4.83;1.70;;;8.80;99.90;;;;;;6337122;22;20141;-45
2022/12/24 02:48:39;;;;;;;5.23;1.40;;;8.80;99.90;;;;;;6310323;22;20143;-44
2022/12/24 02:51:08;;;;;;;5.77;1.67;;;8.80;99.90;;;;;;6338862;22;20240;-44
2022/12/24 02:53:35;;;;;;;4.97;1.50;;;8.80;99.90;;;;;;6311602;22;20159;-44
2022/12/24 02:56:45;;;;;;;3.67;1.33;;;8.70;99.90;;;;;;6311701;22;20158;-45
2022/12/24 02:59:46;;;;;;;4.13;1.30;;;8.70;99.90;;;;;;6311007;22;20143;-42
2022/12/24 03:02:29;;;;;;;6.40;1.70;;;8.60;99.90;;;;;;6260506;22;20202;-45
2022/12/24 03:05:07;;;;;;;4.87;1.50;;;8.60;99.90;;;;;;6311302;22;20184;-44
2022/12/24 03:07:57;;;;;;;4.13;1.23;;;8.50;99.90;;;;;;6311511;22;20163;-44
2022/12/24 03:10:45;;;;;;;3.60;1.70;;;8.40;99.90;;;;;;6285161;22;20609;-42
2022/12/24 03:13:19;;;;;;;5.70;1.50;;;8.50;99.90;;;;;;6311389;22;20159;-42
2022/12/24 03:15:46;;;;;;;7.67;1.63;;;8.50;99.90;;;;;;6338834;22;20151;-44
2022/12/24 03:18:15;;;;;;;3.00;1.47;;;8.50;99.90;;;;;;6338500;22;20144;-44
2022/12/24 03:20:47;;;;;;;4.07;1.43;;;8.50;99.90;;;;;;6311006;22;20171;-44
2022/12/24 03:23:13;;;;;;;5.20;1.50;;;8.60;99.90;;;;;;6285600;22;20208;-42
2022/12/24 03:25:42;;;;;;;4.17;1.43;;;8.60;99.90;;;;;;6311106;22;20166;-44
2022/12/24 03:28:10;;;;;;;6.27;1.80;;;8.70;99.90;;;;;;6285425;22;20163;-40
2022/12/24 03:30:40;;;;;;;4.07;1.47;;;8.70;99.90;;;;;;6311133;22;20182;-44
2022/12/24 03:33:05;;;;;;;5.30;1.50;;;8.70;99.90;;;;;;6311288;22;20179;-43
2022/12/24 03:35:31;;;;;;;3.20;1.50;;;8.70;99.90;;;;;;6310890;22;20159;-44
2022/12/24 03:37:57;;;;;;;3.93;1.40;;;8.80;99.90;;;;;;6284985;22;20144;-42
2022/12/24 03:40:23;;;;;;;7.17;1.80;;;8.80;99.90;;;;;;6310997;22;20167;-42
2022/12/24 03:42:48;;;;;;;6.37;1.80;;;8.90;99.90;;;;;;6311104;22;20223;-42
2022/12/24 03:45:14;;;;;;;7.13;1.60;;;9.00;99.90;;;;;;6285049;22;20163;-45
2022/12/24 03:47:40;;;;;;;7.47;1.50;;;9.00;99.90;;;;;;6311154;22;20226;-42
2022/12/24 03:50:07;;;;;;;4.57;1.63;;;9.00;99.90;;;;;;6310497;22;20169;-44
2022/12/24 03:52:33;;;;;;;3.90;1.53;;;9.00;99.90;;;;;;6337809;22;20163;-44
2022/12/24 03:54:58;;;;;;;5.67;1.67;;;9.00;99.90;;;;;;6311142;22;20136;-44
2022/12/24 03:57:24;;;;;;;8.97;1.70;;;9.00;99.90;;;;;;6310699;22;20151;-44
2022/12/24 03:59:50;;;;;;;6.97;1.70;;;9.10;99.90;;;;;;6310240;22;20151;-43
2022/12/24 04:02:16;;;;;;;8.93;1.57;;;9.10;99.90;;;;;;6337829;22;20183;-42
2022/12/24 04:04:43;;;;;;;6.27;1.30;;;9.10;99.90;;;;;;6309763;22;20236;-42
2022/12/24 04:07:09;;;;;;;6.03;1.57;;;9.10;99.90;;;;;;6336419;22;20163;-42
2022/12/24 04:09:35;;;;;;;7.83;2.07;;;9.10;99.90;;;;;;6310230;22;20151;-42
2022/12/24 04:12:01;;;;;;;3.33;1.40;;;9.20;99.90;;;;;;6284897;22;20214;-42
2022/12/24 04:14:27;;;;;;;8.67;2.00;;;9.20;99.90;;;;;;6310738;22;20156;-42
2022/12/24 04:16:52;;;;;;;5.60;1.90;;;9.20;99.90;;;;;;6311100;22;20136;-42
2022/12/24 04:19:18;;;;;;;5.43;1.60;;;9.20;99.90;;;;;;6309354;22;20152;-42
2022/12/24 04:21:44;;;;;;;6.70;2.47;;;9.20;99.90;;;;;;6310670;22;20175;-42
2022/12/24 04:24:10;;;;;;;4.43;1.83;;;9.30;99.90;;;;;;6337514;22;20223;-42
2022/12/24 04:26:35;;;;;;;7.93;1.90;;;9.30;99.90;;;;;;6310555;22;20155;-43
2022/12/24 04:29:02;;;;;;;5.47;1.83;;;9.30;99.90;;;;;;6284447;22;20179;-42
2022/12/24 04:31:27;;;;;;;5.23;1.47;;;9.30;99.90;;;;;;6337639;22;20195;-42
2022/12/24 04:33:54;;;;;;;7.47;1.70;;;9.30;99.90;;;;;;6310795;22;20194;-43
2022/12/24 04:36:22;;;;;;;4.83;2.00;;;9.40;99.90;;;;;;6310137;22;20155;-43
2022/12/24 04:38:48;;;;;;;6.10;1.73;;;9.30;99.90;;;;;;6337345;22;20146;-43
2022/12/24 04:41:19;;;;;;;5.50;2.00;;;9.30;99.90;;;;;;6337665;22;20175;-40
2022/12/24 04:43:45;;;;;;;7.27;2.30;;;9.30;99.90;;;;;;6310409;22;20175;-41
2022/12/24 04:46:16;;;;;;;8.17;2.10;;;9.30;99.90;;;;;;6310409;22;20144;-42
2022/12/24 04:48:43;;;;;;;5.83;1.87;;;9.30;99.90;;;;;;6310120;22;20147;-41
2022/12/24 04:51:10;;;;;;;5.70;2.30;;;9.30;99.90;;;;;;6309449;22;20269;-42
2022/12/24 04:53:37;;;;;;;11.07;2.90;;;9.30;99.90;;;;;;6310233;22;20201;-42
2022/12/24 04:56:06;;;;;;;6.63;2.60;;;9.30;99.90;;;;;;6310064;22;20676;-41
2022/12/24 04:58:32;;;;;;;5.43;2.40;;;9.30;99.90;;;;;;6309947;22;20158;-42
2022/12/24 05:01:03;;;;;;;5.20;2.20;;;9.30;99.90;;;;;;6336821;22;20179;-42
2022/12/24 05:03:29;;;;;;;6.87;2.40;;;9.20;99.90;;;;;;6310139;22;20147;-43
2022/12/24 05:06:01;;;;;;;6.50;2.20;;;9.20;99.90;;;;;;6309976;22;20158;-42
2022/12/24 05:08:28;;;;;;;6.13;1.63;;;9.20;99.90;;;;;;6335552;22;20148;-42
2022/12/24 05:10:55;;;;;;;4.87;1.93;;;9.20;99.90;;;;;;6336461;22;20233;-41
2022/12/24 05:13:21;;;;;;;3.63;2.10;;;9.20;99.90;;;;;;6309658;22;20177;-42
2022/12/24 05:15:47;;;;;;;3.47;1.80;;;9.20;99.90;;;;;;6283595;22;20245;-43
2022/12/24 05:18:13;;;;;;;4.73;1.77;;;9.20;99.90;;;;;;6310386;22;20159;-42
2022/12/24 05:20:41;;;;;;;5.43;1.70;;;9.20;99.90;;;;;;6283548;22;20176;-42
2022/12/24 05:28:37;;;;;;;5.10;1.57;;;9.20;99.90;;;;;;6337610;22;20146;-43
2022/12/24 05:31:02;;;;;;;5.53;1.60;;;9.10;99.90;;;;;;6310019;22;20179;-44
2022/12/24 05:33:28;;;;;;;6.33;1.57;;;9.10;99.90;;;;;;6309988;22;20183;-41
2022/12/24 05:35:54;;;;;;;5.63;1.50;;;9.10;99.90;;;;;;6283625;22;20159;-42
2022/12/24 05:38:20;;;;;;;7.17;1.80;;;9.00;99.90;;;;;;6336513;22;20205;-42
2022/12/24 05:40:46;;;;;;;4.93;1.67;;;9.00;99.90;;;;;;6284054;22;20175;-42
2022/12/24 05:43:12;;;;;;;6.43;1.50;;;9.00;99.90;;;;;;6337235;22;20151;-42
2022/12/24 05:45:38;;;;;;;7.73;1.73;;;9.00;99.90;;;;;;6310046;22;20234;-42
2022/12/24 05:48:06;;;;;;;8.67;1.90;;;9.10;99.90;;;;;;6309655;22;20257;-42
2022/12/24 05:50:33;;;;;;;10.20;1.93;;;9.10;99.90;;;;;;6309891;22;20194;-42
2022/12/24 05:53:04;;;;;;;5.87;1.50;;;9.20;99.90;;;;;;6310100;22;20179;-42
2022/12/24 05:55:30;;;;;;;6.80;1.70;;;9.20;99.90;;;;;;6337389;22;20143;-42
2022/12/24 05:57:55;;;;;;;6.27;2.73;;;9.20;99.90;;;;;;6337237;22;20171;-42
2022/12/24 06:00:21;;;;;;;4.03;1.80;;;9.20;99.90;;;;;;6309279;22;20225;-42
2022/12/24 06:02:47;;;;;;;6.40;1.80;;;9.20;99.90;;;;;;6309485;22;20163;-42
2022/12/24 06:05:13;;;;;;;4.50;1.63;;;9.20;99.90;;;;;;6309294;22;20159;-42
2022/12/24 06:07:39;;;;;;;4.37;1.63;;;9.20;99.90;;;;;;6309363;22;20163;-42
2022/12/24 06:10:06;;;;;;;5.00;1.80;;;9.20;99.90;;;;;;6309435;22;20156;-42
2022/12/24 06:12:32;;;;;;;7.00;2.13;;;9.20;99.90;;;;;;6306876;22;20187;-43
2022/12/24 06:14:57;;;;;;;11.37;3.27;;;9.20;99.90;;;;;;6306958;22;20152;-42
2022/12/24 06:17:23;;;;;;;7.07;3.00;;;9.20;99.90;;;;;;6307149;22;20204;-42
2022/12/24 06:19:49;;;;;;;10.77;2.80;;;9.20;99.90;;;;;;6307392;22;20158;-42
2022/12/24 06:22:15;;;;;;;8.70;2.33;;;9.20;99.90;;;;;;6281806;22;20186;-43
2022/12/24 06:24:41;;;;;;;6.03;2.10;;;9.20;99.90;;;;;;6336269;22;20155;-42
2022/12/24 06:27:06;;;;;;;6.70;2.50;;;9.20;99.90;;;;;;6308694;22;20164;-42
2022/12/24 06:29:32;;;;;;;8.43;2.33;;;9.20;99.90;;;;;;6308980;22;20136;-44
2022/12/24 06:31:58;;;;;;;7.93;2.33;;;9.20;99.90;;;;;;6337054;22;20183;-42
2022/12/24 06:34:24;;;;;;;8.13;2.03;;;9.20;99.90;;;;;;6337060;22;20154;-42
2022/12/24 06:36:49;;;;;;;5.67;2.03;;;9.20;99.90;;;;;;6309181;22;20186;-42
2022/12/24 06:39:16;;;;;;;8.73;2.20;;;9.20;99.90;;;;;;6282931;22;20151;-42
2022/12/24 06:41:42;;;;;;;8.70;3.17;;;9.20;99.90;;;;;;6335680;22;20175;-42
2022/12/24 06:44:08;;;;;;;8.10;2.70;;;9.20;99.90;;;;;;6335140;22;20162;-42
2022/12/24 06:46:34;;;;;;;8.33;1.80;;;9.10;99.90;;;;;;6336833;22;20158;-44
2022/12/24 06:49:00;;;;;;;9.30;2.53;;;9.10;99.90;;;;;;6308428;22;20186;-42
2022/12/24 06:51:26;;;;;;;8.93;2.10;;;9.10;99.90;;;;;;6335985;22;20183;-44
2022/12/24 06:53:52;;;;;;;4.47;2.17;;;9.10;99.90;;;;;;6309047;22;20154;-42
2022/12/24 06:56:19;;;;;;;6.43;1.90;;;9.10;99.90;;;;;;6308713;22;20269;-42
2022/12/24 06:58:45;;;;;;;6.40;2.00;;;9.10;99.90;;;;;;6308724;22;20628;-42
2022/12/24 07:01:14;;;;;;;6.67;2.20;;;9.00;99.90;;;;;;6334152;22;20183;-43
2022/12/24 07:03:41;;;;;;;8.47;1.80;;;9.10;99.90;;;;;;6308699;22;20167;-42
2022/12/24 07:06:14;;;;;;;4.20;1.90;;;9.00;99.90;;;;;;6308458;22;20244;-42
2022/12/24 07:08:39;;;;;;;6.23;2.20;;;9.10;99.90;;;;;;6308705;22;20273;-42
2022/12/24 07:11:05;;;;;;;6.03;2.30;;;9.10;99.90;;;;;;6308775;22;20183;-42
2022/12/24 07:13:33;;;;;;;7.37;2.10;;;9.10;99.90;;;;;;6308622;22;20168;-42
2022/12/24 07:16:00;;;;;;;4.67;2.17;;;9.10;99.90;;;;;;6308793;22;20159;-42
2022/12/24 07:18:26;;;;;;;5.60;1.80;;;9.10;99.90;;;;;;6336736;22;20155;-42
2022/12/24 07:20:52;;;;;;;13.67;2.67;;;9.10;99.90;;;;;;6306925;22;20675;-42
2022/12/24 07:23:18;;;;;;;8.40;2.17;;;9.10;99.90;;;;;;6283382;22;20494;-42
2022/12/24 07:25:43;;;;;;;11.83;4.33;;;9.10;99.90;;;;;;6308530;22;20174;-42
2022/12/24 07:28:09;;;;;;;13.27;3.57;;;9.20;99.90;;;;;;6308438;22;20151;-42
2022/12/24 07:30:35;;;;;;;8.27;2.20;;;9.10;99.90;;;;;;6307377;22;20189;-42
2022/12/24 07:33:01;;;;;;;6.73;2.20;;;9.10;99.90;;;;;;6308980;22;20182;-42
2022/12/24 07:35:27;;;;;;;8.60;1.90;;;9.10;99.90;;;;;;6335985;22;20136;-43
2022/12/24 07:37:52;;;;;;;5.00;1.77;;;9.10;99.90;;;;;;6308762;22;20246;-42
2022/12/24 07:40:18;;;;;;;8.40;1.77;;;9.00;99.90;;;;;;6308717;22;20171;-42
2022/12/24 07:42:44;;;;;;;6.90;2.20;;;9.00;99.90;;;;;;6335917;22;20147;-42
2022/12/24 07:45:10;;;;;;;7.13;2.20;;;9.00;99.90;;;;;;6307884;22;20163;-42
2022/12/24 07:47:36;;;;;;;6.37;2.10;;;8.90;99.90;;;;;;6308119;22;20281;-42
2022/12/24 07:50:03;;;;;;;4.60;1.93;;;8.80;99.90;;;;;;6306483;22;20653;-43
2022/12/24 07:52:29;;;;;;;8.70;3.13;;;8.70;99.90;;;;;;6308154;22;20214;-43
2022/12/24 07:54:55;;;;;;;6.27;2.53;;;8.60;99.90;;;;;;6308032;22;20161;-42
2022/12/24 07:57:21;;;;;;;9.20;2.70;;;8.60;99.90;;;;;;6307120;22;20143;-42
2022/12/24 07:59:47;;;;;;;10.03;2.57;;;8.50;99.90;;;;;;6306964;22;20152;-42
2022/12/24 08:02:13;;;;;;;7.03;2.47;;;8.40;99.90;;;;;;6308209;22;20198;-42
2022/12/24 08:04:38;;;;;;;8.10;3.27;;;8.40;99.90;;;;;;6308113;22;20163;-44
2022/12/24 08:07:05;;;;;;;5.70;2.73;;;8.30;99.90;;;;;;6335687;22;20281;-45
2022/12/24 08:09:37;;;;;;;5.80;2.57;;;8.30;99.90;;;;;;6336270;22;20151;-42
2022/12/24 08:12:03;;;;;;;7.23;2.50;;;8.30;99.90;;;;;;6284443;22;20187;-42
2022/12/24 08:14:29;;;;;;;5.80;2.50;;;8.30;99.90;;;;;;6309982;22;20166;-42
2022/12/24 08:16:55;;;;;;;10.40;3.83;;;8.30;99.90;;;;;;6308251;22;20234;-42
2022/12/24 08:19:21;;;;;;;10.87;3.53;;;8.40;99.90;;;;;;6308542;22;20197;-42
2022/12/24 08:21:47;;;;;;;9.07;3.10;;;8.40;99.90;;;;;;6308805;22;20202;-42
2022/12/24 08:24:13;;;;;;;8.70;3.00;;;8.40;99.90;;;;;;6309803;22;20185;-42
2022/12/24 08:26:39;;;;;;;6.93;2.30;;;8.40;99.90;;;;;;6310412;22;20159;-42
2022/12/24 08:29:06;;;;;;;7.20;2.70;;;8.40;99.90;;;;;;6310042;22;20166;-42
2022/12/24 08:31:36;;;;;;;7.90;3.00;;;8.40;99.90;;;;;;6336750;22;20175;-42
2022/12/24 08:34:06;;;;;;;8.77;3.00;;;8.40;99.90;;;;;;6309400;22;20226;-42
2022/12/24 08:36:33;;;;;;;9.23;3.13;;;8.40;99.90;;;;;;6310586;22;20189;-42
2022/12/24 08:39:02;;;;;;;9.17;2.77;;;8.50;99.90;;;;;;6309810;22;20144;-42
2022/12/24 08:41:31;;;;;;;8.33;2.67;;;8.50;99.90;;;;;;6309060;22;20176;-42
2022/12/24 08:43:59;;;;;;;9.30;3.13;;;8.60;99.90;;;;;;6337520;22;20147;-42
2022/12/24 08:46:25;;;;;;;7.87;2.83;;;8.60;99.90;;;;;;6310423;22;20158;-42
2022/12/24 08:48:50;;;;;;;7.70;3.10;;;8.60;99.90;;;;;;6336116;22;20151;-42
2022/12/24 08:51:18;;;;;;;10.63;4.37;;;8.70;99.90;;;;;;6307196;22;20191;-42
2022/12/24 08:53:44;;;;;;;13.40;4.00;;;8.70;99.90;;;;;;6304990;22;20219;-43
2022/12/24 08:56:11;;;;;;;15.00;4.60;;;8.80;99.90;;;;;;6307140;22;20170;-42
2022/12/24 08:58:40;;;;;;;10.20;3.90;;;8.90;99.90;;;;;;6334028;22;20497;-40
2022/12/24 09:01:17;;;;;;;13.83;3.70;;;9.00;99.90;;;;;;6333731;22;20175;-42
2022/12/24 09:03:43;;;;;;;11.27;4.03;;;9.10;99.90;;;;;;6306645;22;20159;-42
2022/12/24 09:06:09;;;;;;;10.47;3.30;;;9.30;99.90;;;;;;6335011;22;20155;-42
2022/12/24 09:08:38;;;;;;;13.70;3.27;;;9.40;99.90;;;;;;6334528;22;20163;-44
2022/12/24 09:11:15;;;;;;;12.07;3.63;;;9.50;99.90;;;;;;6304936;22;20187;-44
2022/12/24 09:13:43;;;;;;;12.03;3.23;;;9.60;99.90;;;;;;6335071;22;20458;-42
2022/12/24 09:16:10;;;;;;;12.93;3.80;;;9.70;99.90;;;;;;6306569;22;20147;-42
2022/12/24 09:18:38;;;;;;;17.20;7.17;;;9.70;99.90;;;;;;6307193;22;20162;-43
2022/12/24 09:21:13;;;;;;;13.57;6.30;;;9.70;99.90;;;;;;6334607;22;20163;-42
2022/12/24 09:23:40;;;;;;;11.83;4.90;;;9.80;99.90;;;;;;6307129;22;20185;-43
2022/12/24 09:26:19;;;;;;;12.80;3.90;;;9.80;99.90;;;;;;6334450;22;20148;-42
2022/12/24 09:28:45;;;;;;;12.17;4.20;;;9.80;99.90;;;;;;6305658;22;20159;-42
2022/12/24 09:31:12;;;;;;;13.50;4.40;;;9.90;99.90;;;;;;6306230;22;20172;-42
2022/12/24 09:33:40;;;;;;;8.03;3.43;;;9.90;99.90;;;;;;6307458;22;20641;-42
2022/12/24 09:36:06;;;;;;;15.57;4.70;;;10.00;99.90;;;;;;6309595;22;20605;-42
2022/12/24 09:38:33;;;;;;;10.57;4.13;;;10.00;99.90;;;;;;6307914;22;20156;-42
2022/12/24 09:41:00;;;;;;;16.47;4.43;;;10.10;99.90;;;;;;6304903;22;20181;-43
2022/12/24 09:43:30;;;;;;;15.27;7.90;;;10.10;99.90;;;;;;6306297;22;20167;-42
2022/12/24 09:46:34;;;;;;;14.00;5.00;;;10.10;99.90;;;;;;6306451;22;20160;-42
2022/12/24 09:49:17;;;;;;;11.53;4.50;;;10.20;99.90;;;;;;6260700;22;20159;-43
2022/12/24 09:51:59;;;;;;;15.13;4.50;;;10.30;99.90;;;;;;6334556;22;20189;-42
2022/12/24 09:54:33;;;;;;;8.20;3.47;;;10.30;99.90;;;;;;6306513;22;20232;-43
2022/12/24 09:57:28;;;;;;;14.73;3.47;;;10.40;99.90;;;;;;6281030;22;20143;-42
2022/12/24 09:59:55;;;;;;;9.47;3.53;;;10.40;99.90;;;;;;6303107;22;20161;-42
2022/12/24 10:02:21;;;;;;;7.13;2.60;;;10.40;99.90;;;;;;6308924;22;20180;-43
2022/12/24 10:04:50;;;;;;;9.17;2.40;;;10.50;99.90;;;;;;6307702;22;20239;-42
2022/12/24 10:07:45;;;;;;;9.53;2.90;;;10.50;99.90;;;;;;6336398;22;20147;-43
2022/12/24 10:10:44;;;;;;;9.53;2.20;;;10.60;99.90;;;;;;6335994;22;20165;-42
2022/12/24 10:13:13;;;;;;;7.60;2.40;;;10.80;99.90;;;;;;6281613;22;20185;-42
2022/12/24 10:15:56;;;;;;;9.87;2.80;;;10.90;99.90;;;;;;6336717;22;20143;-42
2022/12/24 10:18:48;;;;;;;8.00;2.30;;;11.00;99.90;;;;;;6336008;22;20182;-42
2022/12/24 10:21:44;;;;;;;7.53;2.70;;;11.20;99.90;;;;;;6309107;22;20244;-42
2022/12/24 10:24:29;;;;;;;7.27;2.20;;;11.30;99.90;;;;;;6336066;22;20168;-42
2022/12/24 10:27:00;;;;;;;11.07;2.13;;;11.30;99.90;;;;;;6335897;22;20144;-42
2022/12/24 10:29:34;;;;;;;8.77;2.10;;;11.30;99.90;;;;;;6308260;22;20154;-42
2022/12/24 10:32:07;;;;;;;10.70;2.20;;;11.30;99.90;;;;;;6308203;22;20204;-42
2022/12/24 10:34:43;;;;;;;6.20;2.00;;;11.20;99.90;;;;;;6308224;22;20204;-42
2022/12/24 10:37:23;;;;;;;7.80;2.33;;;11.20;99.90;;;;;;6308066;22;20177;-42
2022/12/24 10:39:49;;;;;;;26.57;11.50;;;11.10;99.90;;;;;;6282164;22;20153;-42
2022/12/24 10:42:16;;;;;;;20.40;7.40;;;11.10;99.90;;;;;;6335650;22;20173;-42
2022/12/24 10:44:48;;;;;;;9.07;3.33;;;11.10;99.90;;;;;;6310417;22;20181;-43
2022/12/24 10:47:19;;;;;;;11.07;3.97;;;11.10;99.90;;;;;;6280241;22;20173;-44
2022/12/24 10:49:53;;;;;;;9.47;3.13;;;11.00;99.90;;;;;;6307226;22;20160;-44
2022/12/24 10:52:23;;;;;;;8.67;3.00;;;11.00;99.90;;;;;;6334860;22;20186;-44
2022/12/24 10:55:06;;;;;;;9.63;2.70;;;11.10;99.90;;;;;;6303750;22;20163;-42
2022/12/24 10:57:33;;;;;;;16.63;4.40;;;11.10;99.90;;;;;;6306845;22;20161;-43
2022/12/24 11:00:00;;;;;;;7.93;2.77;;;11.10;99.90;;;;;;6334426;22;20147;-44
2022/12/24 11:02:30;;;;;;;10.20;3.00;;;11.10;99.90;;;;;;6337039;22;20140;-42
2022/12/24 11:04:59;;;;;;;16.37;4.20;;;11.10;99.90;;;;;;6309617;22;20158;-44
2022/12/24 11:07:25;;;;;;;15.97;4.83;;;11.10;99.90;;;;;;6307587;22;20173;-41
2022/12/24 11:10:00;;;;;;;8.63;3.23;;;11.20;99.90;;;;;;6331046;22;20161;-44
2022/12/24 11:12:36;;;;;;;8.20;2.67;;;11.20;99.90;;;;;;6335599;22;20174;-44
2022/12/24 11:15:04;;;;;;;13.13;3.10;;;11.20;99.90;;;;;;6332863;22;20138;-44
2022/12/24 11:17:31;;;;;;;10.50;2.70;;;11.20;99.90;;;;;;6277233;22;20157;-43
2022/12/24 11:20:03;;;;;;;8.07;2.97;;;11.30;99.90;;;;;;6303359;22;20229;-42
2022/12/24 11:22:31;;;;;;;11.53;2.70;;;11.30;99.90;;;;;;6307477;22;20240;-42
2022/12/24 11:25:20;;;;;;;11.10;4.60;;;11.40;99.90;;;;;;6307331;22;20176;-43
2022/12/24 11:27:50;;;;;;;9.00;3.10;;;11.40;99.90;;;;;;6335139;22;20143;-43
2022/12/24 11:30:31;;;;;;;10.67;2.83;;;11.50;99.90;;;;;;6280634;22;20165;-42
2022/12/24 11:33:15;;;;;;;9.37;2.53;;;11.50;99.90;;;;;;6306999;22;20246;-42
2022/12/24 11:35:46;;;;;;;7.50;2.10;;;11.60;99.90;;;;;;6308709;22;20146;-42
2022/12/24 11:38:22;;;;;;;10.57;2.83;;;11.70;99.90;;;;;;6303591;22;20147;-42
2022/12/24 11:41:10;;;;;;;6.33;2.57;;;11.90;99.90;;;;;;6303240;22;20185;-43
2022/12/24 11:43:47;;;;;;;9.23;2.87;;;11.90;99.90;;;;;;6304692;22;20185;-42
2022/12/24 11:46:18;;;;;;;12.43;2.67;;;12.00;99.90;;;;;;6305594;22;20244;-43
2022/12/24 11:48:47;;;;;;;7.50;2.47;;;12.00;99.90;;;;;;6332113;22;20154;-44
2022/12/24 11:51:25;;;;;;;10.20;3.17;;;12.10;99.90;;;;;;6305383;22;20290;-42
2022/12/24 11:54:21;;;;;;;9.20;2.57;;;12.00;99.90;;;;;;6281145;22;20161;-44
2022/12/24 11:56:55;;;;;;;8.97;3.10;;;12.10;99.90;;;;;;6333857;22;20245;-43
2022/12/24 11:59:25;;;;;;;7.60;2.43;;;12.10;99.90;;;;;;6304686;22;20233;-42
2022/12/24 12:02:12;;;;;;;13.90;5.33;;;12.20;99.90;;;;;;6305646;22;20220;-42
2022/12/24 12:04:40;;;;;;;11.20;3.90;;;12.40;99.90;;;;;;6332219;22;20224;-44
2022/12/24 12:07:21;;;;;;;8.50;2.53;;;12.40;99.90;;;;;;6332196;22;20170;-43
2022/12/24 12:09:52;;;;;;;11.07;2.60;;;12.60;99.90;;;;;;6279443;22;20140;-44
2022/12/24 12:12:25;;;;;;;11.70;3.60;;;12.70;99.90;;;;;;6305836;22;20191;-42
2022/12/24 12:14:57;;;;;;;10.70;3.53;;;12.70;99.90;;;;;;6307574;22;20155;-42
2022/12/24 12:17:29;;;;;;;11.40;3.23;;;12.70;99.90;;;;;;6282174;22;20148;-42
2022/12/24 12:20:27;;;;;;;11.77;3.17;;;12.60;99.90;;;;;;6307920;22;20167;-42
2022/12/24 12:23:08;;;;;;;10.87;2.50;;;12.60;99.90;;;;;;6277805;22;20162;-42
2022/12/24 12:26:09;;;;;;;7.53;2.50;;;12.60;99.90;;;;;;6308199;22;20151;-44
2022/12/24 12:28:50;;;;;;;9.00;2.70;;;12.70;99.90;;;;;;6266114;22;20189;-42
2022/12/24 12:31:35;;;;;;;7.77;2.40;;;12.70;99.90;;;;;;6307060;22;20179;-43
2022/12/24 12:34:14;;;;;;;11.17;2.30;;;12.70;99.90;;;;;;6308022;22;20152;-42
2022/12/24 12:36:48;;;;;;;11.53;2.50;;;12.70;99.90;;;;;;6282373;22;20151;-43
2022/12/24 12:39:14;;;;;;;11.27;2.80;;;12.80;99.90;;;;;;6307807;22;20140;-42
2022/12/24 12:41:46;;;;;;;12.37;2.90;;;12.80;99.90;;;;;;6307989;22;20186;-43
2022/12/24 12:44:27;;;;;;;9.40;2.37;;;12.80;99.90;;;;;;6307925;22;20159;-42
2022/12/24 12:47:27;;;;;;;10.73;2.27;;;12.80;99.90;;;;;;6336206;22;20201;-42
2022/12/24 12:50:07;;;;;;;8.30;2.63;;;12.80;99.90;;;;;;6335485;22;20136;-42
2022/12/24 12:53:00;;;;;;;11.23;2.80;;;12.60;99.90;;;;;;6305798;22;20221;-39
2022/12/24 12:55:37;;;;;;;7.87;2.67;;;12.50;99.90;;;;;;6334884;22;20136;-42
2022/12/24 12:58:24;;;;;;;6.07;2.67;;;12.40;99.90;;;;;;6305933;22;20143;-43
2022/12/24 13:00:56;;;;;;;8.57;2.13;;;12.30;99.90;;;;;;6305624;22;20236;-44
2022/12/24 13:03:49;;;;;;;8.90;2.20;;;12.20;99.90;;;;;;6305288;22;20213;-43
2022/12/24 13:06:34;;;;;;;6.53;2.00;;;12.10;99.90;;;;;;6333562;22;20153;-44
2022/12/24 13:09:24;;;;;;;8.23;2.10;;;12.10;99.90;;;;;;6305198;22;20289;-43
2022/12/24 13:12:13;;;;;;;9.00;2.63;;;12.10;99.90;;;;;;6306330;22;20190;-42
2022/12/24 13:15:01;;;;;;;7.77;2.30;;;12.00;99.90;;;;;;6305529;22;20255;-42
2022/12/24 13:17:51;;;;;;;7.83;2.17;;;12.00;99.90;;;;;;6284228;22;20151;-42
2022/12/24 13:20:23;;;;;;;8.40;2.03;;;11.90;99.90;;;;;;6309632;22;20232;-42